createdAt,value
2022-08-27T00:00:36.277Z,17.10
2022-08-27T00:01:39.601Z,17.20
2022-08-27T00:02:43.930Z,17.20
2022-08-27T00:03:48.636Z,17.20
2022-08-27T00:04:55.539Z,17.20
2022-08-27T00:05:58.567Z,17.20
2022-08-27T00:07:03.213Z,17.20
2022-08-27T00:08:08.137Z,17.20
2022-08-27T00:09:12.084Z,17.20
2022-08-27T00:10:30.454Z,17.20
2022-08-27T00:11:32.936Z,17.20
2022-08-27T00:12:39.071Z,17.20
2022-08-27T00:13:43.022Z,17.20
2022-08-27T00:14:46.912Z,17.20
2022-08-27T00:15:49.917Z,17.20
2022-08-27T00:16:53.447Z,17.20
2022-08-27T00:17:56.677Z,17.20
2022-08-27T00:19:05.686Z,17.30
2022-08-27T00:20:09.776Z,17.30
2022-08-27T00:21:15.658Z,17.30
2022-08-27T00:22:18.486Z,17.30
2022-08-27T00:23:24.367Z,17.30
2022-08-27T00:24:29.007Z,17.30
2022-08-27T00:25:33.083Z,17.30
2022-08-27T00:26:40.160Z,17.30
2022-08-27T00:27:46.175Z,17.30
2022-08-27T00:28:50.609Z,17.30
2022-08-27T00:29:56.664Z,17.20
2022-08-27T00:31:01.483Z,17.20
2022-08-27T00:32:06.128Z,17.20
2022-08-27T00:33:08.748Z,17.20
2022-08-27T00:34:14.891Z,17.20
2022-08-27T00:35:18.864Z,17.20
2022-08-27T00:36:22.932Z,17.20
2022-08-27T00:37:26.387Z,17.20
2022-08-27T00:38:30.296Z,17.20
2022-08-27T00:39:33.413Z,17.10
2022-08-27T00:40:37.570Z,17.10
2022-08-27T00:41:42.114Z,17.10
2022-08-27T00:42:46.067Z,17.10
2022-08-27T00:43:54.581Z,17.10
2022-08-27T00:44:59.667Z,17.00
2022-08-27T00:46:07.986Z,17.00
2022-08-27T00:47:17.132Z,17.00
2022-08-27T00:48:21.304Z,17.00
2022-08-27T00:49:29.004Z,17.00
2022-08-27T00:50:37.013Z,16.90
2022-08-27T00:51:41.746Z,16.90
2022-08-27T00:52:48.959Z,16.90
2022-08-27T00:53:55.360Z,16.90
2022-08-27T00:55:03.563Z,16.80
2022-08-27T00:56:15.805Z,16.80
2022-08-27T00:57:21.085Z,16.80
2022-08-27T00:58:30.674Z,16.80
2022-08-27T00:59:34.668Z,16.70
2022-08-27T01:00:39.001Z,16.70
2022-08-27T01:02:01.868Z,16.70
2022-08-27T01:03:05.890Z,16.70
2022-08-27T01:04:08.581Z,16.60
2022-08-27T01:05:16.885Z,16.60
2022-08-27T01:06:21.294Z,16.60
2022-08-27T01:07:28.667Z,16.50
2022-08-27T01:08:38.028Z,16.50
2022-08-27T01:09:44.402Z,16.50
2022-08-27T01:10:48.176Z,16.50
2022-08-27T01:11:56.789Z,16.40
2022-08-27T01:12:59.461Z,16.40
2022-08-27T01:14:05.502Z,16.40
2022-08-27T01:15:20.058Z,16.30
2022-08-27T01:16:30.921Z,16.30
2022-08-27T01:17:34.938Z,16.30
2022-08-27T01:18:39.395Z,16.30
2022-08-27T01:19:52.673Z,16.20
2022-08-27T01:21:00.305Z,16.20
2022-08-27T01:22:20.348Z,16.20
2022-08-27T01:23:35.208Z,16.20
2022-08-27T01:24:44.858Z,16.20
2022-08-27T01:25:48.825Z,16.10
2022-08-27T01:26:56.453Z,16.10
2022-08-27T01:28:02.974Z,16.10
2022-08-27T01:29:06.731Z,16.10
2022-08-27T01:30:12.789Z,16.10
2022-08-27T01:31:16.694Z,16.00
2022-08-27T01:32:22.988Z,16.00
2022-08-27T01:33:28.754Z,16.00
2022-08-27T01:34:31.189Z,16.00
2022-08-27T01:35:35.702Z,16.00
2022-08-27T01:36:42.556Z,16.00
2022-08-27T01:37:52.410Z,16.00
2022-08-27T01:38:55.981Z,16.00
2022-08-27T01:40:03.666Z,16.00
2022-08-27T01:41:07.518Z,16.00
2022-08-27T01:42:19.040Z,16.00
2022-08-27T01:43:21.306Z,16.00
2022-08-27T01:44:25.591Z,15.90
2022-08-27T01:45:33.694Z,15.90
2022-08-27T01:46:36.707Z,15.90
2022-08-27T01:47:40.876Z,15.90
2022-08-27T01:48:43.868Z,15.90
2022-08-27T01:49:48.145Z,15.90
2022-08-27T01:50:51.324Z,15.90
2022-08-27T01:51:54.952Z,15.90
2022-08-27T01:52:57.829Z,15.90
2022-08-27T01:54:01.273Z,15.90
2022-08-27T01:55:07.603Z,15.90
2022-08-27T01:56:13.275Z,15.90
2022-08-27T01:57:16.503Z,15.90
2022-08-27T01:58:23.253Z,15.90
2022-08-27T01:59:26.016Z,15.90
2022-08-27T02:00:48.913Z,15.90
2022-08-27T02:01:57.699Z,15.90
2022-08-27T02:03:01.263Z,15.90
2022-08-27T02:04:04.414Z,15.90
2022-08-27T02:05:11.379Z,15.90
2022-08-27T02:06:14.828Z,15.90
2022-08-27T02:07:19.081Z,15.90
2022-08-27T02:08:22.509Z,15.90
2022-08-27T02:09:26.690Z,15.90
2022-08-27T02:10:35.769Z,15.90
2022-08-27T02:11:43.771Z,15.80
2022-08-27T02:12:47.945Z,15.90
2022-08-27T02:13:51.374Z,15.90
2022-08-27T02:14:56.228Z,15.90
2022-08-27T02:16:00.043Z,15.90
2022-08-27T02:17:02.586Z,15.90
2022-08-27T02:18:07.751Z,15.90
2022-08-27T02:19:10.406Z,15.90
2022-08-27T02:20:19.145Z,15.90
2022-08-27T02:21:21.686Z,15.90
2022-08-27T02:22:25.573Z,15.90
2022-08-27T02:23:28.145Z,15.90
2022-08-27T02:24:34.505Z,15.90
2022-08-27T02:25:38.388Z,15.80
2022-08-27T02:26:41.912Z,15.80
2022-08-27T02:27:44.942Z,15.80
2022-08-27T02:28:48.431Z,15.80
2022-08-27T02:29:51.725Z,15.80
2022-08-27T02:30:55.418Z,15.80
2022-08-27T02:31:57.864Z,15.80
2022-08-27T02:33:02.620Z,15.80
2022-08-27T02:34:05.487Z,15.80
2022-08-27T02:35:10.150Z,15.80
2022-08-27T02:36:13.729Z,15.80
2022-08-27T02:37:17.405Z,15.80
2022-08-27T02:38:21.218Z,15.70
2022-08-27T02:39:23.735Z,15.70
2022-08-27T02:40:27.845Z,15.70
2022-08-27T02:41:31.561Z,15.70
2022-08-27T02:42:37.558Z,15.70
2022-08-27T02:43:40.351Z,15.70
2022-08-27T02:44:45.546Z,15.70
2022-08-27T02:45:48.492Z,15.60
2022-08-27T02:46:52.111Z,15.60
2022-08-27T02:47:58.836Z,15.60
2022-08-27T02:49:04.755Z,15.60
2022-08-27T02:50:09.047Z,15.60
2022-08-27T02:51:12.707Z,15.60
2022-08-27T02:52:15.105Z,15.50
2022-08-27T02:53:19.589Z,15.50
2022-08-27T02:54:22.691Z,15.50
2022-08-27T02:55:26.570Z,15.50
2022-08-27T02:56:29.241Z,15.50
2022-08-27T02:57:36.390Z,15.50
2022-08-27T02:59:45.542Z,15.50
2022-08-27T03:00:48.347Z,15.50
2022-08-27T03:01:54.246Z,15.40
2022-08-27T03:02:57.686Z,15.40
2022-08-27T03:04:02.420Z,15.40
2022-08-27T03:05:06.819Z,15.40
2022-08-27T03:06:11.505Z,15.40
2022-08-27T03:07:18.657Z,15.30
2022-08-27T03:08:24.699Z,15.30
2022-08-27T03:09:29.555Z,15.30
2022-08-27T03:10:33.231Z,15.30
2022-08-27T03:11:38.074Z,15.30
2022-08-27T03:12:44.217Z,15.30
2022-08-27T03:13:46.736Z,15.20
2022-08-27T03:14:50.143Z,15.20
2022-08-27T03:15:53.797Z,15.20
2022-08-27T03:18:19.625Z,15.20
2022-08-27T03:19:24.022Z,15.10
2022-08-27T03:20:28.080Z,15.10
2022-08-27T03:21:31.616Z,15.10
2022-08-27T03:22:36.495Z,15.10
2022-08-27T03:23:39.992Z,15.10
2022-08-27T03:24:44.592Z,15.10
2022-08-27T03:25:52.527Z,15.10
2022-08-27T03:26:56.718Z,15.10
2022-08-27T03:28:01.181Z,15.00
2022-08-27T03:29:04.812Z,15.00
2022-08-27T03:30:12.175Z,15.00
2022-08-27T03:31:21.664Z,15.00
2022-08-27T03:32:26.325Z,15.00
2022-08-27T03:33:32.200Z,15.00
2022-08-27T03:34:34.760Z,15.00
2022-08-27T03:35:38.330Z,15.00
2022-08-27T03:37:49.613Z,14.90
2022-08-27T03:38:53.736Z,14.90
2022-08-27T03:39:56.175Z,14.90
2022-08-27T03:40:59.926Z,14.90
2022-08-27T03:42:02.473Z,14.90
2022-08-27T03:43:07.395Z,14.90
2022-08-27T03:44:10.122Z,14.90
2022-08-27T03:45:20.410Z,14.90
2022-08-27T03:46:22.992Z,14.90
2022-08-27T03:47:26.420Z,14.90
2022-08-27T03:48:31.721Z,14.90
2022-08-27T03:49:35.222Z,14.80
2022-08-27T03:50:39.481Z,14.80
2022-08-27T03:51:43.362Z,14.80
2022-08-27T03:52:46.552Z,14.80
2022-08-27T03:53:49.945Z,14.80
2022-08-27T03:54:52.817Z,14.80
2022-08-27T03:55:56.184Z,14.80
2022-08-27T03:56:58.592Z,14.80
2022-08-27T03:58:02.443Z,14.80
2022-08-27T03:59:06.760Z,14.80
2022-08-27T04:00:14.187Z,14.80
2022-08-27T04:01:19.403Z,14.80
2022-08-27T04:02:22.895Z,14.80
2022-08-27T04:03:25.986Z,14.80
2022-08-27T04:04:32.441Z,14.80
2022-08-27T04:05:37.213Z,14.80
2022-08-27T04:06:41.461Z,14.70
2022-08-27T04:07:46.022Z,14.70
2022-08-27T04:08:49.424Z,14.70
2022-08-27T04:09:52.130Z,14.70
2022-08-27T04:10:56.482Z,14.70
2022-08-27T04:11:59.147Z,14.70
2022-08-27T04:13:05.995Z,14.60
2022-08-27T04:14:24.703Z,14.60
2022-08-27T04:15:32.449Z,14.60
2022-08-27T04:16:36.267Z,14.60
2022-08-27T04:17:40.102Z,14.60
2022-08-27T04:18:42.830Z,14.60
2022-08-27T04:19:46.242Z,14.60
2022-08-27T04:20:52.387Z,14.60
2022-08-27T04:21:59.316Z,14.60
2022-08-27T04:23:04.480Z,14.60
2022-08-27T04:24:09.837Z,14.50
2022-08-27T04:25:12.730Z,14.50
2022-08-27T04:26:16.970Z,14.50
2022-08-27T04:27:20.711Z,14.50
2022-08-27T04:28:24.371Z,14.50
2022-08-27T04:29:28.422Z,14.50
2022-08-27T04:30:32.981Z,14.50
2022-08-27T04:31:35.579Z,14.50
2022-08-27T04:32:39.556Z,14.50
2022-08-27T04:33:51.311Z,14.50
2022-08-27T04:34:55.826Z,14.50
2022-08-27T04:35:58.909Z,14.50
2022-08-27T04:37:06.297Z,14.50
2022-08-27T04:38:09.078Z,14.50
2022-08-27T04:39:13.204Z,14.50
2022-08-27T04:40:15.757Z,14.50
2022-08-27T04:41:23.085Z,14.40
2022-08-27T04:42:26.598Z,14.50
2022-08-27T04:43:33.393Z,14.50
2022-08-27T04:44:39.100Z,14.50
2022-08-27T04:45:46.166Z,14.50
2022-08-27T04:46:51.162Z,14.50
2022-08-27T04:47:54.212Z,14.50
2022-08-27T04:49:02.077Z,14.50
2022-08-27T04:50:06.984Z,14.50
2022-08-27T04:51:14.640Z,14.50
2022-08-27T04:52:21.137Z,14.50
2022-08-27T04:53:23.901Z,14.50
2022-08-27T04:54:32.430Z,14.50
2022-08-27T04:55:42.227Z,14.50
2022-08-27T04:56:46.226Z,14.50
2022-08-27T04:57:48.649Z,14.50
2022-08-27T04:58:53.112Z,14.50
2022-08-27T04:59:58.014Z,14.60
2022-08-27T05:01:01.915Z,14.60
2022-08-27T05:02:08.960Z,14.60
2022-08-27T05:03:12.629Z,14.60
2022-08-27T05:04:18.981Z,14.60
2022-08-27T05:05:23.674Z,14.60
2022-08-27T05:06:27.560Z,14.70
2022-08-27T05:07:31.712Z,14.70
2022-08-27T05:08:34.954Z,14.70
2022-08-27T05:09:39.109Z,14.80
2022-08-27T05:10:43.541Z,14.80
2022-08-27T05:11:47.812Z,14.80
2022-08-27T05:12:50.498Z,14.80
2022-08-27T05:13:53.880Z,14.80
2022-08-27T05:14:58.803Z,14.80
2022-08-27T05:16:04.755Z,14.80
2022-08-27T05:17:13.314Z,14.80
2022-08-27T05:18:16.313Z,14.90
2022-08-27T05:19:19.884Z,14.90
2022-08-27T05:20:25.521Z,14.90
2022-08-27T05:21:32.054Z,15.00
2022-08-27T05:22:36.628Z,15.00
2022-08-27T05:23:39.990Z,15.00
2022-08-27T05:24:46.043Z,15.00
2022-08-27T05:25:54.159Z,15.00
2022-08-27T05:26:57.548Z,15.10
2022-08-27T05:28:00.215Z,15.10
2022-08-27T05:29:05.666Z,15.10
2022-08-27T05:30:13.344Z,15.10
2022-08-27T05:31:19.627Z,15.10
2022-08-27T05:32:23.296Z,15.20
2022-08-27T05:33:26.423Z,15.20
2022-08-27T05:34:31.900Z,15.20
2022-08-27T05:35:40.638Z,15.20
2022-08-27T05:36:47.947Z,15.20
2022-08-27T05:37:51.757Z,15.30
2022-08-27T05:38:56.510Z,15.30
2022-08-27T05:39:59.869Z,15.30
2022-08-27T05:41:07.562Z,15.30
2022-08-27T05:42:11.274Z,15.40
2022-08-27T05:43:15.863Z,15.40
2022-08-27T05:44:40.108Z,15.40
2022-08-27T05:45:45.964Z,15.40
2022-08-27T05:46:48.522Z,15.50
2022-08-27T05:47:51.882Z,15.50
2022-08-27T05:48:58.421Z,15.50
2022-08-27T05:50:03.759Z,15.50
2022-08-27T05:51:13.523Z,15.60
2022-08-27T05:52:19.929Z,15.60
2022-08-27T05:53:23.485Z,15.60
2022-08-27T05:54:27.401Z,15.70
2022-08-27T05:55:29.851Z,15.70
2022-08-27T05:56:37.650Z,15.70
2022-08-27T05:57:41.859Z,15.80
2022-08-27T05:59:03.162Z,15.80
2022-08-27T06:00:30.902Z,15.90
2022-08-27T06:01:38.624Z,15.90
2022-08-27T06:02:41.803Z,15.90
2022-08-27T06:03:47.621Z,16.00
2022-08-27T06:04:51.683Z,16.00
2022-08-27T06:06:01.808Z,16.00
2022-08-27T06:07:06.607Z,16.10
2022-08-27T06:08:09.479Z,16.10
2022-08-27T06:09:18.297Z,16.10
2022-08-27T06:10:21.102Z,16.20
2022-08-27T06:11:24.696Z,16.20
2022-08-27T06:12:28.213Z,16.20
2022-08-27T06:13:36.421Z,16.30
2022-08-27T06:14:41.094Z,16.30
2022-08-27T06:15:44.756Z,16.40
2022-08-27T06:16:48.932Z,16.40
2022-08-27T06:17:53.144Z,16.40
2022-08-27T06:18:57.410Z,16.50
2022-08-27T06:20:00.955Z,16.50
2022-08-27T06:21:04.358Z,16.60
2022-08-27T06:22:09.943Z,16.60
2022-08-27T06:24:18.118Z,16.70
2022-08-27T06:25:20.851Z,16.70
2022-08-27T06:26:26.953Z,16.80
2022-08-27T06:27:32.935Z,16.80
2022-08-27T06:28:36.956Z,16.90
2022-08-27T06:29:41.080Z,16.90
2022-08-27T06:30:44.849Z,17.00
2022-08-27T06:31:50.536Z,17.00
2022-08-27T06:32:54.629Z,17.10
2022-08-27T06:34:02.989Z,17.10
2022-08-27T06:35:11.992Z,17.20
2022-08-27T06:36:17.858Z,17.20
2022-08-27T06:37:21.468Z,17.20
2022-08-27T06:38:24.788Z,17.30
2022-08-27T06:39:28.449Z,17.30
2022-08-27T06:40:40.750Z,17.40
2022-08-27T06:41:44.749Z,17.40
2022-08-27T06:42:47.573Z,17.40
2022-08-27T06:43:54.698Z,17.40
2022-08-27T06:44:57.765Z,17.40
2022-08-27T06:46:06.063Z,17.50
2022-08-27T06:47:16.565Z,17.50
2022-08-27T06:48:24.558Z,17.50
2022-08-27T06:49:28.908Z,17.60
2022-08-27T06:50:38.987Z,17.60
2022-08-27T06:51:46.995Z,17.60
2022-08-27T06:52:49.425Z,17.60
2022-08-27T06:53:53.820Z,17.60
2022-08-27T06:54:56.432Z,17.70
2022-08-27T06:56:02.678Z,17.70
2022-08-27T06:57:05.563Z,17.70
2022-08-27T06:58:09.416Z,17.70
2022-08-27T06:59:15.721Z,17.70
2022-08-27T07:00:19.706Z,17.80
2022-08-27T07:01:30.175Z,17.90
2022-08-27T07:02:35.353Z,18.20
2022-08-27T07:03:40.126Z,18.70
2022-08-27T07:04:43.907Z,19.10
2022-08-27T07:05:46.727Z,19.70
2022-08-27T07:06:51.177Z,20.20
2022-08-27T07:07:53.858Z,20.80
2022-08-27T07:09:00.155Z,21.40
2022-08-27T07:10:04.254Z,22.00
2022-08-27T07:11:10.250Z,22.60
2022-08-27T07:12:18.351Z,23.20
2022-08-27T07:13:21.487Z,23.80
2022-08-27T07:16:41.115Z,25.50
2022-08-27T07:17:47.344Z,26.00
2022-08-27T07:18:53.259Z,26.60
2022-08-27T07:19:56.931Z,27.10
2022-08-27T07:20:59.455Z,27.60
2022-08-27T07:22:06.455Z,28.10
2022-08-27T07:23:11.252Z,28.50
2022-08-27T07:24:17.208Z,29.00
2022-08-27T07:26:24.172Z,29.80
2022-08-27T07:27:28.137Z,30.20
2022-08-27T07:28:30.699Z,30.60
2022-08-27T07:29:35.626Z,30.90
2022-08-27T07:30:38.542Z,31.20
2022-08-27T07:31:44.428Z,31.50
2022-08-27T07:32:48.594Z,31.80
2022-08-27T07:33:53.207Z,32.20
2022-08-27T07:34:56.007Z,32.60
2022-08-27T07:35:59.846Z,32.90
2022-08-27T07:37:02.369Z,33.20
2022-08-27T07:38:06.917Z,33.50
2022-08-27T07:39:14.005Z,33.80
2022-08-27T07:40:18.559Z,34.10
2022-08-27T07:41:21.343Z,34.40
2022-08-27T07:42:42.562Z,34.70
2022-08-27T07:44:06.239Z,35.00
2022-08-27T07:45:13.213Z,35.30
2022-08-27T07:46:16.010Z,35.70
2022-08-27T07:47:22.605Z,35.90
2022-08-27T07:48:30.931Z,36.20
2022-08-27T07:49:35.850Z,36.40
2022-08-27T07:50:38.286Z,36.70
2022-08-27T07:52:47.647Z,37.10
2022-08-27T07:53:54.952Z,37.40
2022-08-27T07:54:58.382Z,37.60
2022-08-27T07:56:05.676Z,37.70
2022-08-27T07:57:08.712Z,37.60
2022-08-27T07:59:26.277Z,37.10
2022-08-27T08:00:30.521Z,36.60
2022-08-27T08:01:35.293Z,36.10
2022-08-27T08:05:54.681Z,35.60
2022-08-27T08:08:04.317Z,33.30
2022-08-27T08:09:08.527Z,32.40
2022-08-27T08:11:19.762Z,31.40
2022-08-27T08:12:26.524Z,31.00
2022-08-27T08:13:29.708Z,30.50
2022-08-27T08:15:40.094Z,30.10
2022-08-27T08:20:18.413Z,29.40
2022-08-27T08:22:28.973Z,28.00
2022-08-27T08:23:39.163Z,27.40
2022-08-27T08:25:46.481Z,27.10
2022-08-27T08:26:50.739Z,26.70
2022-08-27T08:27:57.204Z,26.50
2022-08-27T08:29:07.092Z,26.30
2022-08-27T08:35:40.412Z,26.10
2022-08-27T08:37:57.795Z,25.00
2022-08-27T08:39:00.457Z,24.90
2022-08-27T08:47:35.521Z,23.70
2022-08-27T08:48:45.287Z,23.30
2022-08-27T08:50:04.657Z,22.90
2022-08-27T08:51:18.660Z,22.90
2022-08-27T08:53:48.993Z,22.80
2022-08-27T08:54:57.604Z,22.50
2022-08-27T08:56:09.047Z,22.40
2022-08-27T08:57:24.248Z,22.30
2022-08-27T08:58:40.643Z,22.20
2022-08-27T08:59:57.505Z,22.10
2022-08-27T09:01:12.314Z,22.10
2022-08-27T09:02:16.385Z,22.00
2022-08-27T09:03:20.172Z,22.00
2022-08-27T09:04:30.715Z,21.90
2022-08-27T09:05:37.707Z,21.90
2022-08-27T09:06:46.485Z,21.80
2022-08-27T09:08:21.265Z,21.80
2022-08-27T09:09:35.328Z,21.80
2022-08-27T09:10:45.232Z,21.80
2022-08-27T09:11:59.326Z,21.70
2022-08-27T09:13:05.808Z,21.70
2022-08-27T09:14:25.203Z,21.70
2022-08-27T09:15:31.853Z,21.80
2022-08-27T09:16:35.557Z,21.80
2022-08-27T09:17:38.302Z,21.80
2022-08-27T09:18:45.449Z,21.80
2022-08-27T09:19:48.097Z,21.90
2022-08-27T09:21:10.052Z,22.00
2022-08-27T09:22:24.270Z,22.00
2022-08-27T09:23:37.493Z,22.10
2022-08-27T09:24:52.679Z,22.20
2022-08-27T09:25:58.226Z,22.30
2022-08-27T09:27:05.666Z,22.40
2022-08-27T09:28:32.438Z,22.40
2022-08-27T09:29:39.587Z,22.50
2022-08-27T09:30:44.228Z,22.60
2022-08-27T09:31:58.597Z,22.60
2022-08-27T09:33:05.367Z,22.70
2022-08-27T09:34:11.905Z,22.70
2022-08-27T09:35:18.415Z,22.80
2022-08-27T09:36:23.974Z,22.80
2022-08-27T09:37:34.213Z,22.90
2022-08-27T09:38:39.790Z,22.90
2022-08-27T09:39:51.563Z,22.90
2022-08-27T09:40:56.740Z,23.00
2022-08-27T09:42:00.726Z,23.00
2022-08-27T09:43:09.693Z,23.00
2022-08-27T09:44:19.810Z,23.00
2022-08-27T09:45:27.667Z,23.00
2022-08-27T09:46:33.798Z,23.00
2022-08-27T09:47:45.946Z,23.00
2022-08-27T09:48:48.833Z,23.00
2022-08-27T09:50:10.517Z,23.00
2022-08-27T09:51:21.711Z,23.00
2022-08-27T09:52:38.047Z,23.00
2022-08-27T09:53:50.329Z,23.00
2022-08-27T09:54:56.768Z,23.10
2022-08-27T09:56:05.451Z,23.10
2022-08-27T09:57:12.155Z,23.10
2022-08-27T09:58:21.825Z,23.10
2022-08-27T09:59:29.256Z,23.10
2022-08-27T10:00:39.316Z,23.10
2022-08-27T10:01:55.087Z,23.20
2022-08-27T10:03:05.153Z,23.20
2022-08-27T10:04:12.377Z,23.20
2022-08-27T10:05:31.627Z,23.30
2022-08-27T10:06:37.469Z,23.30
2022-08-27T10:07:52.700Z,23.40
2022-08-27T10:09:07.119Z,23.40
2022-08-27T10:10:19.101Z,23.50
2022-08-27T10:11:29.615Z,23.50
2022-08-27T10:12:44.875Z,23.50
2022-08-27T10:13:58.050Z,23.50
2022-08-27T10:15:04.405Z,23.60
2022-08-27T10:16:37.788Z,23.60
2022-08-27T10:17:54.829Z,23.60
2022-08-27T10:19:13.281Z,23.60
2022-08-27T10:20:30.358Z,23.70
2022-08-27T10:21:44.750Z,23.70
2022-08-27T10:23:06.612Z,23.80
2022-08-27T10:24:23.010Z,23.80
2022-08-27T10:25:36.924Z,23.80
2022-08-27T10:26:50.051Z,23.80
2022-08-27T10:28:09.082Z,23.80
2022-08-27T10:29:24.164Z,23.90
2022-08-27T10:30:46.492Z,23.90
2022-08-27T10:32:06.218Z,23.90
2022-08-27T10:33:23.381Z,23.90
2022-08-27T10:34:45.281Z,24.00
2022-08-27T10:36:02.353Z,24.10
2022-08-27T10:37:25.867Z,24.10
2022-08-27T10:38:49.778Z,24.20
2022-08-27T10:40:11.167Z,24.30
2022-08-27T10:41:23.891Z,24.30
2022-08-27T10:42:34.605Z,24.40
2022-08-27T10:44:18.068Z,24.50
2022-08-27T10:45:41.769Z,24.60
2022-08-27T10:47:24.598Z,24.70
2022-08-27T10:48:37.586Z,24.80
2022-08-27T10:49:52.743Z,24.80
2022-08-27T10:51:08.420Z,24.90
2022-08-27T10:52:22.801Z,24.80
2022-08-27T10:53:35.783Z,24.90
2022-08-27T10:54:49.102Z,24.80
2022-08-27T10:56:07.615Z,24.80
2022-08-27T10:57:40.037Z,24.80
2022-08-27T10:59:03.977Z,24.70
2022-08-27T11:00:13.203Z,24.70
2022-08-27T11:01:29.086Z,24.70
2022-08-27T11:02:36.553Z,24.60
2022-08-27T11:03:48.506Z,24.60
2022-08-27T11:04:57.940Z,24.60
2022-08-27T11:06:16.564Z,24.60
2022-08-27T11:07:28.056Z,24.60
2022-08-27T11:08:42.092Z,24.60
2022-08-27T11:09:56.838Z,24.60
2022-08-27T11:11:35.001Z,24.60
2022-08-27T11:12:38.362Z,24.60
2022-08-27T11:13:52.397Z,24.60
2022-08-27T11:15:02.157Z,24.60
2022-08-27T11:16:14.986Z,24.70
2022-08-27T11:17:27.001Z,24.80
2022-08-27T11:18:49.041Z,24.80
2022-08-27T11:19:59.662Z,24.90
2022-08-27T11:21:10.628Z,24.90
2022-08-27T11:22:26.680Z,25.00
2022-08-27T11:23:39.263Z,25.10
2022-08-27T11:24:50.233Z,25.10
2022-08-27T11:26:02.155Z,25.20
2022-08-27T11:27:09.200Z,25.40
2022-08-27T11:28:14.632Z,25.40
2022-08-27T11:30:59.042Z,25.70
2022-08-27T11:33:17.713Z,25.90
2022-08-27T11:34:34.375Z,25.90
2022-08-27T11:35:57.222Z,26.00
2022-08-27T11:37:22.194Z,26.10
2022-08-27T11:38:47.206Z,26.10
2022-08-27T11:40:29.303Z,26.20
2022-08-27T11:42:02.130Z,26.30
2022-08-27T11:43:09.297Z,26.30
2022-08-27T11:44:16.657Z,26.40
2022-08-27T11:45:28.990Z,26.40
2022-08-27T11:46:46.063Z,26.50
2022-08-27T11:48:00.526Z,26.60
2022-08-27T11:49:04.950Z,26.60
2022-08-27T11:50:22.541Z,26.70
2022-08-27T11:51:33.626Z,26.70
2022-08-27T11:52:43.820Z,26.80
2022-08-27T11:54:00.126Z,26.80
2022-08-27T11:55:27.604Z,26.80
2022-08-27T11:56:45.259Z,26.90
2022-08-27T11:57:50.387Z,27.00
2022-08-27T11:58:53.947Z,27.00
2022-08-27T11:59:57.221Z,27.00
2022-08-27T12:01:04.941Z,27.00
2022-08-27T12:02:26.197Z,27.10
2022-08-27T12:03:32.556Z,27.10
2022-08-27T12:04:42.985Z,27.10
2022-08-27T12:06:18.034Z,27.10
2022-08-27T12:07:35.913Z,27.10
2022-08-27T12:08:38.927Z,27.20
2022-08-27T12:10:02.002Z,27.20
2022-08-27T12:11:22.233Z,27.30
2022-08-27T12:12:37.447Z,27.40
2022-08-27T12:13:51.802Z,27.50
2022-08-27T12:15:05.155Z,27.70
2022-08-27T12:16:27.898Z,28.00
2022-08-27T12:17:40.749Z,28.30
2022-08-27T12:19:01.235Z,28.60
2022-08-27T12:20:19.973Z,28.90
2022-08-27T12:21:38.992Z,29.20
2022-08-27T12:23:26.545Z,29.50
2022-08-27T12:24:45.544Z,29.80
2022-08-27T12:26:02.925Z,30.00
2022-08-27T12:27:32.005Z,30.30
2022-08-27T12:28:35.624Z,30.50
2022-08-27T12:29:49.013Z,30.80
2022-08-27T12:30:59.092Z,31.00
2022-08-27T12:32:20.656Z,31.20
2022-08-27T12:33:32.117Z,31.40
2022-08-27T12:34:47.880Z,31.60
2022-08-27T12:35:55.769Z,31.80
2022-08-27T12:36:58.923Z,32.00
2022-08-27T12:38:16.276Z,32.10
2022-08-27T12:39:24.225Z,32.30
2022-08-27T12:40:39.844Z,32.40
2022-08-27T12:41:47.942Z,32.50
2022-08-27T12:43:05.347Z,32.50
2022-08-27T12:44:13.755Z,32.50
2022-08-27T12:45:27.298Z,32.40
2022-08-27T12:46:30.684Z,32.30
2022-08-27T12:47:50.645Z,32.20
2022-08-27T12:49:36.852Z,32.00
2022-08-27T12:50:30.618Z,31.80
2022-08-27T12:51:38.004Z,31.50
2022-08-27T12:53:10.138Z,31.30
2022-08-27T12:54:38.095Z,31.10
2022-08-27T12:56:01.235Z,30.80
2022-08-27T12:57:13.063Z,30.60
2022-08-27T12:58:28.386Z,30.40
2022-08-27T13:00:12.596Z,30.30
2022-08-27T13:01:38.253Z,30.00
2022-08-27T13:03:25.938Z,29.90
2022-08-27T13:04:33.883Z,29.70
2022-08-27T13:05:45.012Z,29.60
2022-08-27T13:06:49.587Z,29.50
2022-08-27T13:07:55.441Z,29.40
2022-08-27T13:09:02.692Z,29.40
2022-08-27T13:10:16.802Z,29.40
2022-08-27T13:11:24.494Z,29.30
2022-08-27T13:12:27.940Z,29.30
2022-08-27T13:13:33.047Z,29.20
2022-08-27T13:14:41.851Z,29.10
2022-08-27T13:15:48.851Z,29.00
2022-08-27T13:16:55.966Z,28.90
2022-08-27T13:18:02.523Z,28.90
2022-08-27T13:19:09.547Z,28.80
2022-08-27T13:20:20.209Z,28.80
2022-08-27T13:21:30.009Z,28.70
2022-08-27T13:22:39.706Z,28.70
2022-08-27T13:23:47.079Z,28.70
2022-08-27T13:24:53.936Z,28.70
2022-08-27T13:26:05.481Z,28.70
2022-08-27T13:27:09.596Z,28.60
2022-08-27T13:28:17.103Z,28.60
2022-08-27T13:29:22.874Z,28.60
2022-08-27T13:30:35.494Z,28.70
2022-08-27T13:31:43.478Z,28.60
2022-08-27T13:32:48.445Z,28.70
2022-08-27T13:33:58.715Z,28.70
2022-08-27T13:35:03.861Z,28.60
2022-08-27T13:36:09.732Z,28.60
2022-08-27T13:37:25.342Z,28.60
2022-08-27T13:38:32.366Z,28.60
2022-08-27T13:39:37.826Z,28.60
2022-08-27T13:40:59.062Z,28.60
2022-08-27T13:43:15.753Z,28.60
2022-08-27T13:44:27.772Z,28.50
2022-08-27T13:45:31.630Z,28.40
2022-08-27T13:46:48.736Z,28.30
2022-08-27T13:50:05.556Z,28.20
2022-08-27T13:53:52.981Z,28.00
2022-08-27T13:55:06.239Z,27.80
2022-08-27T13:56:09.624Z,27.70
2022-08-27T13:57:25.915Z,27.60
2022-08-27T13:58:34.060Z,27.60
2022-08-27T13:59:43.500Z,27.50
2022-08-27T14:00:48.710Z,27.40
2022-08-27T14:01:58.582Z,27.40
2022-08-27T14:03:02.292Z,27.30
2022-08-27T14:04:15.509Z,27.20
2022-08-27T14:05:34.015Z,27.20
2022-08-27T14:06:46.980Z,27.10
2022-08-27T14:07:55.260Z,27.00
2022-08-27T14:09:00.212Z,26.90
2022-08-27T14:10:09.216Z,26.90
2022-08-27T14:11:15.604Z,26.90
2022-08-27T14:12:34.728Z,26.80
2022-08-27T14:14:55.368Z,26.80
2022-08-27T14:16:00.094Z,26.80
2022-08-27T14:17:09.932Z,26.70
2022-08-27T14:18:37.096Z,26.70
2022-08-27T14:19:52.462Z,26.70
2022-08-27T14:21:00.747Z,26.60
2022-08-27T14:22:04.911Z,26.60
2022-08-27T14:23:13.253Z,26.50
2022-08-27T14:24:18.039Z,26.50
2022-08-27T14:25:23.609Z,26.50
2022-08-27T14:26:32.843Z,26.40
2022-08-27T14:27:37.563Z,26.40
2022-08-27T14:28:42.820Z,26.30
2022-08-27T14:29:45.454Z,26.30
2022-08-27T14:30:53.688Z,26.30
2022-08-27T14:31:59.201Z,26.30
2022-08-27T14:33:05.104Z,26.20
2022-08-27T14:34:09.744Z,26.20
2022-08-27T14:35:13.872Z,26.10
2022-08-27T14:36:32.318Z,26.10
2022-08-27T14:37:39.722Z,26.10
2022-08-27T14:39:53.315Z,26.10
2022-08-27T14:42:11.190Z,26.00
2022-08-27T14:43:16.689Z,25.90
2022-08-27T14:44:22.119Z,25.90
2022-08-27T14:45:25.424Z,25.90
2022-08-27T14:46:42.790Z,25.90
2022-08-27T14:47:48.470Z,25.80
2022-08-27T14:48:53.241Z,25.80
2022-08-27T14:49:56.859Z,25.80
2022-08-27T14:51:04.122Z,25.70
2022-08-27T14:52:15.063Z,25.70
2022-08-27T14:53:20.058Z,25.70
2022-08-27T14:55:37.666Z,25.60
2022-08-27T14:56:44.821Z,25.50
2022-08-27T14:57:47.973Z,25.50
2022-08-27T14:58:59.262Z,25.50
2022-08-27T15:00:02.437Z,25.40
2022-08-27T15:01:08.126Z,25.40
2022-08-27T15:02:19.001Z,25.40
2022-08-27T15:03:25.441Z,25.40
2022-08-27T15:04:32.189Z,25.30
2022-08-27T15:05:35.289Z,25.30
2022-08-27T15:06:39.826Z,25.20
2022-08-27T15:07:47.020Z,25.20
2022-08-27T15:08:52.711Z,25.20
2022-08-27T15:10:00.656Z,25.10
2022-08-27T15:11:04.001Z,25.10
2022-08-27T15:12:21.717Z,25.10
2022-08-27T15:13:35.273Z,25.10
2022-08-27T15:14:44.896Z,25.00
2022-08-27T15:15:48.607Z,25.00
2022-08-27T15:16:57.563Z,25.00
2022-08-27T15:18:02.031Z,24.90
2022-08-27T15:19:08.290Z,24.90
2022-08-27T15:20:19.881Z,24.90
2022-08-27T15:22:34.709Z,24.80
2022-08-27T15:23:46.919Z,24.70
2022-08-27T15:24:56.535Z,24.70
2022-08-27T15:26:03.905Z,24.70
2022-08-27T15:27:09.211Z,24.70
2022-08-27T15:28:18.688Z,24.60
2022-08-27T15:29:22.402Z,24.60
2022-08-27T15:30:31.418Z,24.60
2022-08-27T15:31:35.462Z,24.60